createdAt,value
2024-03-31T00:00:51.905Z,33.50
2024-03-31T00:04:01.487Z,38.00
2024-03-31T00:06:49.757Z,40.75
2024-03-31T00:09:49.622Z,38.25
2024-03-31T00:12:18.259Z,45.00
2024-03-31T00:14:54.251Z,38.25
2024-03-31T00:17:23.165Z,39.75
2024-03-31T00:19:57.098Z,43.75
2024-03-31T00:22:30.198Z,44.25
2024-03-31T00:25:01.624Z,43.75
2024-03-31T00:27:29.596Z,48.25
2024-03-31T00:29:59.150Z,48.50
2024-03-31T00:32:28.702Z,55.00
2024-03-31T00:34:57.102Z,57.50
2024-03-31T00:37:31.901Z,59.00
2024-03-31T00:40:03.579Z,55.25
2024-03-31T00:42:32.096Z,54.67
2024-03-31T00:45:02.587Z,57.00
2024-03-31T00:47:33.024Z,59.75
2024-03-31T00:50:01.388Z,59.67
2024-03-31T00:52:29.473Z,57.75
2024-03-31T00:54:57.614Z,54.67
2024-03-31T00:57:28.610Z,53.00
2024-03-31T00:59:56.647Z,54.25
2024-03-31T01:02:26.405Z,51.50
2024-03-31T01:04:54.526Z,56.75
2024-03-31T01:07:22.662Z,56.25
2024-03-31T01:09:53.141Z,58.00
2024-03-31T01:12:21.402Z,60.25
2024-03-31T01:14:49.681Z,58.33
2024-03-31T01:17:17.814Z,59.50
2024-03-31T01:19:46.133Z,63.00
2024-03-31T01:22:15.319Z,63.67
2024-03-31T01:24:48.962Z,61.00
2024-03-31T01:27:18.223Z,60.00
2024-03-31T01:29:51.867Z,62.75
2024-03-31T01:32:24.454Z,64.50
2024-03-31T01:35:02.467Z,60.25
2024-03-31T01:37:30.762Z,64.50
2024-03-31T01:40:02.197Z,66.00
2024-03-31T01:42:31.993Z,63.75
2024-03-31T01:44:59.992Z,62.67
2024-03-31T01:47:28.468Z,60.50
2024-03-31T01:49:56.842Z,57.00
2024-03-31T01:52:25.234Z,64.00
2024-03-31T01:54:53.808Z,56.00
2024-03-31T01:57:22.348Z,66.25
2024-03-31T01:59:53.542Z,62.00
2024-03-31T02:02:21.468Z,61.25
2024-03-31T02:04:49.777Z,60.50
2024-03-31T02:07:17.908Z,61.25
2024-03-31T02:09:45.947Z,61.75
2024-03-31T02:12:14.137Z,63.75
2024-03-31T02:14:42.272Z,62.25
2024-03-31T02:17:10.366Z,60.50
2024-03-31T02:19:38.546Z,62.25
2024-03-31T02:22:06.607Z,62.00
2024-03-31T02:24:34.569Z,62.25
2024-03-31T02:27:02.784Z,72.75
2024-03-31T02:29:31.034Z,122.75
2024-03-31T02:31:59.501Z,99.25
2024-03-31T02:34:27.915Z,84.75
2024-03-31T02:36:56.096Z,63.75
2024-03-31T02:39:24.609Z,62.25
2024-03-31T02:41:52.893Z,58.50
2024-03-31T02:44:21.561Z,41.00
2024-03-31T02:46:51.178Z,47.00
2024-03-31T02:49:19.400Z,44.75
2024-03-31T02:51:47.594Z,53.25
2024-03-31T02:54:15.898Z,54.25
2024-03-31T02:56:44.258Z,49.75
2024-03-31T02:59:12.466Z,50.75
2024-03-31T03:01:40.508Z,51.75
2024-03-31T03:04:08.582Z,45.50
2024-03-31T03:06:36.827Z,52.25
2024-03-31T03:09:08.598Z,54.75
2024-03-31T03:11:39.929Z,52.75
2024-03-31T03:14:07.865Z,56.75
2024-03-31T03:16:45.487Z,59.25
2024-03-31T03:19:13.938Z,60.75
2024-03-31T03:21:43.760Z,64.00
2024-03-31T03:24:12.295Z,60.25
2024-03-31T03:26:40.556Z,62.50
2024-03-31T03:29:11.386Z,68.00
2024-03-31T03:31:39.696Z,64.33
2024-03-31T03:34:07.940Z,73.25
2024-03-31T03:36:39.884Z,67.75
2024-03-31T03:39:08.431Z,65.00
2024-03-31T03:41:36.788Z,72.25
2024-03-31T03:44:06.662Z,71.25
2024-03-31T03:46:34.938Z,69.50
2024-03-31T03:49:02.937Z,68.00
2024-03-31T03:51:42.685Z,72.75
2024-03-31T03:54:13.890Z,71.25
2024-03-31T03:56:45.453Z,73.50
2024-03-31T03:59:13.738Z,71.33
2024-03-31T04:01:41.915Z,70.00
2024-03-31T04:04:10.246Z,72.00
2024-03-31T04:06:38.546Z,71.00
2024-03-31T04:09:06.836Z,76.50
2024-03-31T04:11:34.943Z,71.33
2024-03-31T04:14:03.567Z,77.50
2024-03-31T04:16:34.392Z,72.50
2024-03-31T04:19:02.643Z,76.00
2024-03-31T04:21:33.224Z,72.50
2024-03-31T04:24:03.583Z,73.50
2024-03-31T04:26:32.128Z,73.00
2024-03-31T04:29:00.241Z,78.75
2024-03-31T04:31:28.693Z,77.75
2024-03-31T04:33:58.030Z,74.67
2024-03-31T04:36:26.123Z,72.50
2024-03-31T04:38:55.276Z,71.75
2024-03-31T04:41:26.674Z,75.25
2024-03-31T04:43:54.915Z,74.75
2024-03-31T04:46:23.590Z,70.75
2024-03-31T04:48:55.411Z,76.00
2024-03-31T04:51:23.847Z,74.25
2024-03-31T04:53:52.207Z,76.75
2024-03-31T04:56:23.123Z,71.50
2024-03-31T04:58:55.076Z,72.50
2024-03-31T05:01:24.196Z,70.75
2024-03-31T05:03:56.596Z,76.75
2024-03-31T05:06:24.646Z,76.75
2024-03-31T05:08:52.692Z,74.75
2024-03-31T05:11:20.980Z,79.75
2024-03-31T05:13:57.236Z,79.25
2024-03-31T05:16:28.940Z,73.25
2024-03-31T05:18:57.239Z,85.00
2024-03-31T05:21:27.634Z,77.75
2024-03-31T05:23:55.838Z,81.00
2024-03-31T05:26:31.621Z,75.33
2024-03-31T05:28:59.788Z,79.75
2024-03-31T05:31:28.764Z,69.75
2024-03-31T05:34:05.929Z,81.50
2024-03-31T05:36:38.002Z,70.50
2024-03-31T05:39:08.539Z,77.00
2024-03-31T05:41:36.846Z,72.25
2024-03-31T05:44:05.356Z,74.25
2024-03-31T05:46:34.288Z,73.25
2024-03-31T05:49:03.001Z,71.50
2024-03-31T05:51:33.190Z,72.75
2024-03-31T05:54:02.115Z,72.00
2024-03-31T05:56:31.771Z,71.00
2024-03-31T05:58:59.707Z,71.75
2024-03-31T06:01:28.497Z,70.25
2024-03-31T06:03:56.695Z,70.75
2024-03-31T06:06:24.780Z,71.25
2024-03-31T06:08:53.779Z,67.00
2024-03-31T06:11:21.875Z,66.25
2024-03-31T06:13:50.655Z,69.00
2024-03-31T06:16:18.876Z,69.00
2024-03-31T06:18:47.254Z,63.00
2024-03-31T06:21:15.594Z,66.00
2024-03-31T06:23:43.835Z,70.25
2024-03-31T06:26:13.359Z,71.75
2024-03-31T06:28:42.413Z,68.75
2024-03-31T06:31:10.422Z,65.75
2024-03-31T06:33:42.864Z,64.50
2024-03-31T06:36:11.523Z,62.50
2024-03-31T06:38:39.522Z,61.00
2024-03-31T06:41:08.201Z,62.50
2024-03-31T06:43:49.749Z,59.00
2024-03-31T06:46:28.884Z,67.00
2024-03-31T06:49:00.331Z,59.50
2024-03-31T06:51:28.822Z,61.67
2024-03-31T06:53:57.228Z,58.50
2024-03-31T06:56:28.571Z,61.00
2024-03-31T06:59:02.519Z,62.25
2024-03-31T07:01:30.866Z,53.00
2024-03-31T07:03:59.111Z,51.67
2024-03-31T07:06:28.646Z,55.75
2024-03-31T07:08:56.750Z,58.25
2024-03-31T07:11:25.018Z,50.00
2024-03-31T07:13:56.858Z,48.75
2024-03-31T07:16:25.662Z,48.75
2024-03-31T07:18:54.021Z,51.50
2024-03-31T07:21:25.110Z,46.00
2024-03-31T07:23:53.715Z,49.75
2024-03-31T07:26:22.184Z,49.00
2024-03-31T07:28:50.334Z,49.33
2024-03-31T07:31:18.631Z,47.00
2024-03-31T07:33:46.832Z,47.75
2024-03-31T07:36:15.332Z,46.50
2024-03-31T07:38:43.321Z,35.00
2024-03-31T07:41:11.381Z,37.00
2024-03-31T07:43:39.778Z,39.00
2024-03-31T07:46:07.825Z,37.50
2024-03-31T07:48:35.788Z,37.00
2024-03-31T07:51:04.101Z,39.00
2024-03-31T07:53:32.256Z,35.50
2024-03-31T07:56:02.169Z,40.75
2024-03-31T07:58:30.787Z,34.67
2024-03-31T08:01:01.228Z,40.50
2024-03-31T08:03:32.224Z,38.25
2024-03-31T08:06:00.460Z,37.67
2024-03-31T08:08:28.542Z,35.00
2024-03-31T08:10:56.899Z,38.50
2024-03-31T08:13:26.739Z,47.50
2024-03-31T08:15:54.776Z,51.00
2024-03-31T08:18:23.393Z,39.00
2024-03-31T08:20:51.388Z,37.50
2024-03-31T08:23:19.524Z,35.25
2024-03-31T08:25:54.097Z,36.00
2024-03-31T08:28:25.343Z,41.25
2024-03-31T08:30:56.091Z,36.00
2024-03-31T08:33:24.275Z,49.50
2024-03-31T08:35:53.548Z,39.00
2024-03-31T08:38:21.882Z,43.00
2024-03-31T08:40:56.616Z,40.25
2024-03-31T08:43:29.043Z,39.00
2024-03-31T08:45:59.277Z,43.75
2024-03-31T08:48:31.992Z,42.00
2024-03-31T08:51:00.835Z,39.00
2024-03-31T08:53:30.808Z,36.75
2024-03-31T08:55:59.374Z,48.00
2024-03-31T08:59:30.429Z,37.75
2024-03-31T09:02:17.585Z,39.33
2024-03-31T09:04:45.601Z,40.25
2024-03-31T09:07:13.893Z,41.25
2024-03-31T09:09:43.105Z,38.00
2024-03-31T09:12:13.135Z,43.50
2024-03-31T09:14:42.882Z,43.00
2024-03-31T09:17:18.290Z,46.25
2024-03-31T09:19:47.167Z,39.00
2024-03-31T09:22:15.659Z,43.50
2024-03-31T09:24:48.940Z,43.75
2024-03-31T09:27:17.729Z,45.50
2024-03-31T09:29:46.779Z,47.50
2024-03-31T09:32:17.904Z,40.75
2024-03-31T09:34:47.556Z,44.00
2024-03-31T09:37:16.921Z,42.75
2024-03-31T09:39:48.005Z,43.25
2024-03-31T09:42:16.243Z,39.75
2024-03-31T09:44:45.306Z,38.25
2024-03-31T09:47:22.492Z,33.25
2024-03-31T09:50:24.633Z,44.75
2024-03-31T09:53:36.229Z,38.00
2024-03-31T09:56:34.152Z,39.00
2024-03-31T09:59:11.770Z,33.25
2024-03-31T10:02:09.721Z,45.00
2024-03-31T10:04:50.556Z,34.00
2024-03-31T10:07:19.420Z,42.67
2024-03-31T10:10:02.665Z,41.00
2024-03-31T10:12:44.380Z,33.75
2024-03-31T10:15:18.602Z,31.00
2024-03-31T10:17:50.511Z,36.00
2024-03-31T10:20:20.050Z,34.50
2024-03-31T10:22:48.486Z,29.75
2024-03-31T10:25:17.392Z,34.50
2024-03-31T10:27:52.010Z,31.75
2024-03-31T10:30:20.249Z,39.50
2024-03-31T10:32:48.673Z,44.50
2024-03-31T10:35:16.692Z,34.00
2024-03-31T10:37:45.409Z,31.25
2024-03-31T10:40:15.381Z,33.00
2024-03-31T10:42:44.002Z,28.00
2024-03-31T10:45:14.097Z,33.00
2024-03-31T10:47:42.358Z,32.25
2024-03-31T10:50:10.774Z,34.25
2024-03-31T10:52:45.582Z,31.75
2024-03-31T10:55:18.383Z,37.00
2024-03-31T10:57:54.643Z,33.25
2024-03-31T11:00:22.948Z,28.50
2024-03-31T11:02:55.920Z,33.50
2024-03-31T11:05:24.213Z,34.75
2024-03-31T11:07:58.522Z,33.00
2024-03-31T11:10:26.983Z,36.00
2024-03-31T11:13:06.272Z,26.25
2024-03-31T11:15:38.361Z,27.00
2024-03-31T11:18:06.951Z,30.00
2024-03-31T11:20:45.416Z,29.75
2024-03-31T11:23:15.819Z,25.75
2024-03-31T11:25:44.538Z,37.25
2024-03-31T11:28:14.401Z,26.75
2024-03-31T11:30:44.410Z,28.00
2024-03-31T11:33:14.119Z,32.50
2024-03-31T11:35:46.321Z,29.50
2024-03-31T11:38:15.595Z,30.50
2024-03-31T11:40:44.759Z,30.75
2024-03-31T11:43:13.740Z,33.50
2024-03-31T11:45:42.210Z,28.25
2024-03-31T11:48:10.459Z,30.50
2024-03-31T11:50:38.884Z,34.75
2024-03-31T11:53:20.407Z,31.33
2024-03-31T11:55:49.480Z,36.00
2024-03-31T11:58:18.813Z,38.50
2024-03-31T12:00:53.453Z,35.00
2024-03-31T12:03:21.539Z,26.75
2024-03-31T12:05:51.836Z,25.00
2024-03-31T12:08:22.059Z,26.00
2024-03-31T12:10:56.216Z,31.00
2024-03-31T12:13:25.683Z,28.75
2024-03-31T12:15:57.120Z,29.00
2024-03-31T12:18:25.718Z,27.00
2024-03-31T12:20:54.600Z,26.75
2024-03-31T12:23:23.337Z,32.00
2024-03-31T12:25:53.002Z,30.25
2024-03-31T12:28:21.734Z,28.75
2024-03-31T12:30:50.493Z,26.75
2024-03-31T12:33:19.073Z,26.25
2024-03-31T12:35:47.439Z,24.00
2024-03-31T12:38:16.449Z,25.50
2024-03-31T12:40:44.901Z,28.00
2024-03-31T12:43:24.266Z,26.50
2024-03-31T12:45:53.948Z,35.25
2024-03-31T12:48:23.508Z,29.00
2024-03-31T12:50:56.433Z,30.50
2024-03-31T12:53:27.817Z,27.00
2024-03-31T12:55:56.019Z,26.00
2024-03-31T12:58:24.106Z,28.00
2024-03-31T13:00:54.625Z,33.50
2024-03-31T13:03:23.762Z,31.25
2024-03-31T13:05:52.412Z,31.00
2024-03-31T13:08:21.607Z,32.00
2024-03-31T13:10:50.201Z,28.25
2024-03-31T13:13:23.130Z,29.25
2024-03-31T13:15:53.040Z,31.50
2024-03-31T13:18:21.716Z,32.00
2024-03-31T13:20:50.329Z,31.25
2024-03-31T13:23:21.575Z,27.25
2024-03-31T13:25:49.747Z,30.25
2024-03-31T13:28:18.003Z,29.75
2024-03-31T13:30:47.873Z,28.25
2024-03-31T13:33:16.309Z,23.00
2024-03-31T13:35:44.775Z,23.00
2024-03-31T13:38:17.801Z,21.00
2024-03-31T13:40:46.305Z,23.00
2024-03-31T13:43:14.715Z,20.67
2024-03-31T13:45:45.710Z,27.50
2024-03-31T13:48:13.963Z,21.75
2024-03-31T13:50:43.583Z,24.50
2024-03-31T13:53:12.047Z,25.00
2024-03-31T13:55:40.237Z,27.50
2024-03-31T13:58:10.171Z,19.50
2024-03-31T14:00:38.786Z,26.50
2024-03-31T14:03:08.174Z,22.00
2024-03-31T14:05:36.704Z,29.50
2024-03-31T14:08:06.607Z,28.00
2024-03-31T14:10:36.037Z,24.75
2024-03-31T14:13:08.044Z,19.75
2024-03-31T14:15:38.014Z,24.50
2024-03-31T14:18:09.509Z,20.00
2024-03-31T14:20:37.657Z,25.00
2024-03-31T14:23:05.749Z,26.00
2024-03-31T14:25:35.222Z,24.25
2024-03-31T14:28:06.908Z,26.50
2024-03-31T14:30:39.311Z,21.50
2024-03-31T14:33:08.608Z,20.75
2024-03-31T14:35:39.124Z,26.00
2024-03-31T14:38:08.125Z,22.00
2024-03-31T14:40:41.169Z,24.50
2024-03-31T14:43:09.419Z,23.50
2024-03-31T14:45:39.008Z,25.50
2024-03-31T14:48:08.227Z,23.50
2024-03-31T14:50:36.920Z,22.75
2024-03-31T14:53:05.249Z,24.50
2024-03-31T14:55:33.614Z,22.25
2024-03-31T14:58:01.880Z,19.00
2024-03-31T15:00:52.610Z,21.00
2024-03-31T15:03:23.431Z,22.00
2024-03-31T15:05:55.838Z,24.00
2024-03-31T15:08:26.881Z,33.75
2024-03-31T15:10:55.590Z,20.25
2024-03-31T15:13:23.804Z,28.67
2024-03-31T15:15:52.012Z,21.67
2024-03-31T15:18:20.146Z,23.00
2024-03-31T15:20:48.317Z,25.75
2024-03-31T15:23:17.032Z,24.67
2024-03-31T15:25:45.395Z,25.50
2024-03-31T15:28:13.516Z,23.50
2024-03-31T15:30:54.539Z,25.00
2024-03-31T15:33:27.625Z,27.00
2024-03-31T15:35:55.771Z,24.75
2024-03-31T15:38:24.732Z,28.25
2024-03-31T15:40:53.161Z,28.00
2024-03-31T15:43:21.299Z,27.50
2024-03-31T15:45:58.845Z,23.00
2024-03-31T15:48:29.580Z,30.75
2024-03-31T15:50:57.932Z,24.00
2024-03-31T15:53:26.095Z,23.50
2024-03-31T15:55:54.712Z,24.33
2024-03-31T15:58:22.872Z,24.00
2024-03-31T16:00:52.048Z,33.25
2024-03-31T16:03:20.668Z,32.75
2024-03-31T16:05:50.657Z,29.50
2024-03-31T16:08:22.691Z,49.25
2024-03-31T16:10:51.524Z,37.00
2024-03-31T16:13:30.364Z,26.50
2024-03-31T16:15:58.550Z,28.75
2024-03-31T16:18:29.451Z,41.00
2024-03-31T16:20:57.823Z,28.25
2024-03-31T16:23:26.205Z,31.25
2024-03-31T16:25:54.267Z,35.25
2024-03-31T16:28:22.457Z,36.00
2024-03-31T16:30:54.595Z,33.25
2024-03-31T16:33:24.266Z,25.00
2024-03-31T16:35:52.581Z,36.50
2024-03-31T16:38:21.062Z,156.75
2024-03-31T16:40:49.435Z,160.25
2024-03-31T16:43:17.747Z,65.75
2024-03-31T16:45:48.598Z,52.25
2024-03-31T16:48:19.853Z,26.00
2024-03-31T16:50:48.218Z,23.25
2024-03-31T16:53:18.400Z,23.25
2024-03-31T16:55:46.843Z,28.25
2024-03-31T16:58:25.865Z,28.75
2024-03-31T17:01:00.016Z,24.75
2024-03-31T17:03:28.287Z,21.50
2024-03-31T17:05:56.592Z,27.75
2024-03-31T17:08:25.037Z,27.50
2024-03-31T17:10:53.017Z,35.75
2024-03-31T17:13:23.602Z,161.50
2024-03-31T17:15:56.332Z,136.00
2024-03-31T17:18:26.613Z,60.25
2024-03-31T17:20:57.522Z,87.50
2024-03-31T17:23:28.997Z,64.75
2024-03-31T17:26:03.135Z,39.75
2024-03-31T17:28:36.952Z,45.75
2024-03-31T17:31:05.416Z,34.50
2024-03-31T17:33:37.465Z,33.50
2024-03-31T17:36:06.055Z,30.25
2024-03-31T17:38:34.563Z,28.25
2024-03-31T17:41:04.436Z,33.00
2024-03-31T17:43:33.479Z,35.67
2024-03-31T17:46:09.204Z,40.25
2024-03-31T17:48:38.890Z,30.00
2024-03-31T17:51:10.687Z,32.50
2024-03-31T17:53:39.721Z,34.00
2024-03-31T17:56:08.363Z,31.25
2024-03-31T17:58:43.745Z,35.25
2024-03-31T18:01:16.535Z,36.75
2024-03-31T18:03:46.258Z,33.25
2024-03-31T18:06:15.006Z,34.75
2024-03-31T18:08:43.473Z,41.25
2024-03-31T18:11:11.922Z,43.50
2024-03-31T18:14:06.170Z,31.75
2024-03-31T18:16:41.733Z,47.25
2024-03-31T18:19:09.740Z,45.75
2024-03-31T18:21:40.880Z,44.00
2024-03-31T18:24:09.010Z,36.50
2024-03-31T18:26:37.136Z,33.50
2024-03-31T18:29:05.193Z,35.25
2024-03-31T18:31:33.709Z,31.00
2024-03-31T18:34:01.940Z,40.50
2024-03-31T18:36:30.162Z,58.00
2024-03-31T18:39:01.070Z,41.25
2024-03-31T18:41:29.993Z,51.25
2024-03-31T18:43:58.011Z,74.00
2024-03-31T18:46:28.623Z,46.75
2024-03-31T18:48:56.899Z,42.25
2024-03-31T18:51:25.182Z,86.75
2024-03-31T18:53:53.481Z,51.75
2024-03-31T18:56:24.940Z,52.50
2024-03-31T18:58:53.417Z,59.00
2024-03-31T19:01:27.896Z,86.00
2024-03-31T19:03:58.119Z,78.67
2024-03-31T19:06:30.941Z,71.25
2024-03-31T19:09:02.543Z,57.25
2024-03-31T19:11:31.354Z,43.75
2024-03-31T19:14:01.778Z,45.00
2024-03-31T19:16:29.714Z,33.75
2024-03-31T19:18:58.053Z,34.00
2024-03-31T19:21:26.287Z,32.67
2024-03-31T19:23:54.294Z,32.67
2024-03-31T19:26:22.203Z,41.00
2024-03-31T19:28:50.161Z,35.25
2024-03-31T19:31:19.274Z,38.25
2024-03-31T19:33:49.658Z,45.00
2024-03-31T19:36:20.258Z,41.50
2024-03-31T19:38:50.632Z,71.67
2024-03-31T19:41:19.177Z,55.25
2024-03-31T19:43:47.913Z,50.50
2024-03-31T19:46:17.719Z,42.25
2024-03-31T19:48:52.967Z,30.75
2024-03-31T19:51:23.448Z,38.50
2024-03-31T19:53:55.034Z,41.50
2024-03-31T19:56:24.241Z,33.25
2024-03-31T19:58:53.547Z,45.75
2024-03-31T20:01:21.555Z,34.33
2024-03-31T20:03:53.577Z,34.00
2024-03-31T20:06:21.824Z,38.00
2024-03-31T20:08:51.444Z,38.75
2024-03-31T20:11:20.316Z,37.00
2024-03-31T20:13:48.428Z,39.00
2024-03-31T20:16:20.490Z,38.25
2024-03-31T20:18:48.683Z,47.00
2024-03-31T20:21:17.051Z,40.75
2024-03-31T20:23:45.191Z,39.75
2024-03-31T20:26:13.159Z,39.50
2024-03-31T20:28:41.271Z,35.67
2024-03-31T20:31:12.860Z,39.00
2024-03-31T20:33:41.445Z,35.75
2024-03-31T20:36:09.634Z,39.25
2024-03-31T20:38:38.453Z,41.25
2024-03-31T20:41:07.448Z,36.50
2024-03-31T20:43:36.378Z,35.75
2024-03-31T20:46:09.375Z,36.75
2024-03-31T20:48:38.593Z,41.00
2024-03-31T20:51:08.324Z,35.00
2024-03-31T20:53:39.636Z,31.75
2024-03-31T20:56:11.507Z,35.00
2024-03-31T20:58:39.985Z,50.00
2024-03-31T21:01:11.155Z,56.00
2024-03-31T21:03:39.573Z,58.00
2024-03-31T21:06:15.726Z,44.25
2024-03-31T21:08:47.333Z,39.25
2024-03-31T21:11:17.312Z,38.25
2024-03-31T21:13:47.914Z,67.25
2024-03-31T21:16:18.254Z,38.00
2024-03-31T21:18:48.643Z,45.00
2024-03-31T21:21:24.485Z,39.00
2024-03-31T21:24:13.159Z,30.25
2024-03-31T21:26:41.435Z,38.25
2024-03-31T21:29:09.978Z,35.50
2024-03-31T21:31:37.970Z,27.00
2024-03-31T21:34:06.910Z,32.00
2024-03-31T21:36:35.344Z,32.50
2024-03-31T21:39:05.289Z,34.00
2024-03-31T21:41:33.606Z,35.00
2024-03-31T21:44:01.804Z,46.75
2024-03-31T21:46:30.512Z,36.67
2024-03-31T21:48:58.926Z,30.00
2024-03-31T21:51:27.014Z,34.67
2024-03-31T21:53:54.929Z,42.00
2024-03-31T21:56:25.150Z,34.25
2024-03-31T21:58:53.348Z,36.00
2024-03-31T22:01:22.225Z,41.00
2024-03-31T22:03:50.792Z,34.75
2024-03-31T22:06:20.646Z,33.00
2024-03-31T22:08:49.033Z,31.50
2024-03-31T22:11:17.909Z,32.25
2024-03-31T22:13:46.187Z,28.50
2024-03-31T22:16:14.893Z,33.25
2024-03-31T22:18:43.227Z,27.50
2024-03-31T22:21:12.034Z,29.33
2024-03-31T22:23:40.401Z,28.67
2024-03-31T22:26:32.089Z,31.50
2024-03-31T22:29:00.510Z,28.75
2024-03-31T22:31:31.922Z,33.50
2024-03-31T22:34:03.174Z,27.00
2024-03-31T22:36:39.827Z,40.25
2024-03-31T22:39:08.312Z,31.75
2024-03-31T22:41:42.497Z,34.75
2024-03-31T22:44:16.179Z,33.50
2024-03-31T22:46:48.014Z,30.50
2024-03-31T22:49:22.728Z,36.00
2024-03-31T22:51:51.443Z,36.75
2024-03-31T22:54:19.795Z,36.50
2024-03-31T22:56:48.295Z,37.67
2024-03-31T22:59:16.626Z,32.50
2024-03-31T23:01:44.882Z,34.75
2024-03-31T23:04:13.071Z,43.75
2024-03-31T23:06:44.444Z,34.25
2024-03-31T23:09:17.515Z,43.00
2024-03-31T23:11:45.692Z,38.75
2024-03-31T23:14:15.112Z,46.50
2024-03-31T23:16:43.598Z,44.50
2024-03-31T23:19:17.212Z,47.25
2024-03-31T23:21:45.632Z,56.33
2024-03-31T23:24:13.835Z,58.75
2024-03-31T23:26:42.956Z,54.75
2024-03-31T23:29:14.328Z,55.25
2024-03-31T23:31:42.719Z,58.00
2024-03-31T23:34:10.860Z,55.50
2024-03-31T23:36:42.489Z,54.75
2024-03-31T23:39:10.699Z,57.00
2024-03-31T23:41:38.961Z,59.00
2024-03-31T23:44:07.219Z,61.25
2024-03-31T23:46:38.918Z,59.00
2024-03-31T23:49:07.256Z,56.00
2024-03-31T23:52:01.985Z,57.75
2024-03-31T23:54:33.300Z,62.33
2024-03-31T23:57:01.856Z,59.25
2024-03-31T23:59:34.044Z,63.50
